Eastchester, New York
Current Conditions -  °F | °C
As of 5:56 AM on Friday 31 Oct 2014 (Local Time) from KHPN Reporting Station
Scattered Clouds Scattered Clouds  
Wind Chill:   Ceiling: Unl
Heat Index:   Visibility: 10mi
Dew Point: -1°   Wind: 7mph
Humidity: 67%   Direction: 350°N
Pressure: 30"   Gusts: NA
Location:  40.96°N, 73.81°W
Report Text: KHPN 310956Z 35006KT 10SM SCT100 05/M01 A3000 RMK AO2 SLP161 T00501006 $
Loading
Personal Weather Stations






























Interactive Weather Map
Tropical Storm Tracking
New forecast layout! Learn more

10-Day Weather Forecast

Advertisements
Track Severe Weather on mobile